sensor_id;sensor_type;location;lat;lon;timestamp;temperature;humidity
21495;DHT22;10909;53.590;10.054;2023-04-09T00:01:24;10.90;70.70
21495;DHT22;10909;53.590;10.054;2023-04-09T00:03:50;10.90;70.80
21495;DHT22;10909;53.590;10.054;2023-04-09T00:06:16;10.90;70.90
21495;DHT22;10909;53.590;10.054;2023-04-09T00:08:41;10.90;71.00
21495;DHT22;10909;53.590;10.054;2023-04-09T00:11:07;10.90;70.90
21495;DHT22;10909;53.590;10.054;2023-04-09T00:13:33;10.90;71.00
21495;DHT22;10909;53.590;10.054;2023-04-09T00:15:59;10.90;71.10
21495;DHT22;10909;53.590;10.054;2023-04-09T00:18:25;10.90;71.10
21495;DHT22;10909;53.590;10.054;2023-04-09T00:20:52;10.90;71.10
21495;DHT22;10909;53.590;10.054;2023-04-09T00:23:19;10.90;71.40
21495;DHT22;10909;53.590;10.054;2023-04-09T00:25:45;11.00;71.30
21495;DHT22;10909;53.590;10.054;2023-04-09T00:28:10;10.90;71.30
21495;DHT22;10909;53.590;10.054;2023-04-09T00:30:36;10.90;72.10
21495;DHT22;10909;53.590;10.054;2023-04-09T00:33:02;10.90;71.50
21495;DHT22;10909;53.590;10.054;2023-04-09T00:35:27;10.90;71.50
21495;DHT22;10909;53.590;10.054;2023-04-09T00:37:53;10.90;71.50
21495;DHT22;10909;53.590;10.054;2023-04-09T00:40:19;10.90;71.50
21495;DHT22;10909;53.590;10.054;2023-04-09T00:42:45;10.90;71.60
21495;DHT22;10909;53.590;10.054;2023-04-09T00:45:12;10.90;71.60
21495;DHT22;10909;53.590;10.054;2023-04-09T00:47:38;10.90;71.60
21495;DHT22;10909;53.590;10.054;2023-04-09T00:50:04;10.90;71.80
21495;DHT22;10909;53.590;10.054;2023-04-09T00:52:30;10.90;71.80
21495;DHT22;10909;53.590;10.054;2023-04-09T00:54:58;10.90;71.90
21495;DHT22;10909;53.590;10.054;2023-04-09T00:57:25;10.90;71.90
21495;DHT22;10909;53.590;10.054;2023-04-09T00:59:50;10.90;71.90
21495;DHT22;10909;53.590;10.054;2023-04-09T01:02:16;10.90;72.00
21495;DHT22;10909;53.590;10.054;2023-04-09T01:04:42;10.90;72.10
21495;DHT22;10909;53.590;10.054;2023-04-09T01:09:42;10.90;72.10
21495;DHT22;10909;53.590;10.054;2023-04-09T01:12:32;10.90;72.30
21495;DHT22;10909;53.590;10.054;2023-04-09T01:15:10;10.90;72.30
21495;DHT22;10909;53.590;10.054;2023-04-09T01:17:58;10.90;72.40
21495;DHT22;10909;53.590;10.054;2023-04-09T01:26:10;10.80;72.30
21495;DHT22;10909;53.590;10.054;2023-04-09T01:28:46;10.80;72.80
21495;DHT22;10909;53.590;10.054;2023-04-09T01:31:16;10.70;71.70
21495;DHT22;10909;53.590;10.054;2023-04-09T01:33:43;10.70;72.50
21495;DHT22;10909;53.590;10.054;2023-04-09T01:36:10;10.70;72.50
21495;DHT22;10909;53.590;10.054;2023-04-09T01:38:41;10.70;72.60
21495;DHT22;10909;53.590;10.054;2023-04-09T01:41:11;10.70;72.80
21495;DHT22;10909;53.590;10.054;2023-04-09T01:43:39;10.70;72.70
21495;DHT22;10909;53.590;10.054;2023-04-09T01:46:06;10.70;72.90
21495;DHT22;10909;53.590;10.054;2023-04-09T01:48:33;10.70;72.90
21495;DHT22;10909;53.590;10.054;2023-04-09T01:50:59;10.70;73.00
21495;DHT22;10909;53.590;10.054;2023-04-09T01:53:25;10.70;72.80
21495;DHT22;10909;53.590;10.054;2023-04-09T01:55:58;10.80;72.90
21495;DHT22;10909;53.590;10.054;2023-04-09T01:58:24;10.70;71.90
21495;DHT22;10909;53.590;10.054;2023-04-09T02:00:52;10.70;72.70
21495;DHT22;10909;53.590;10.054;2023-04-09T02:03:34;10.70;72.80
21495;DHT22;10909;53.590;10.054;2023-04-09T02:06:14;10.70;73.10
21495;DHT22;10909;53.590;10.054;2023-04-09T02:08:45;10.70;73.20
21495;DHT22;10909;53.590;10.054;2023-04-09T02:11:13;10.70;73.00
21495;DHT22;10909;53.590;10.054;2023-04-09T02:13:40;10.70;73.00
21495;DHT22;10909;53.590;10.054;2023-04-09T02:16:09;10.70;73.00
21495;DHT22;10909;53.590;10.054;2023-04-09T02:18:35;10.70;73.00
21495;DHT22;10909;53.590;10.054;2023-04-09T02:21:02;10.70;73.00
21495;DHT22;10909;53.590;10.054;2023-04-09T02:23:29;10.70;73.10
21495;DHT22;10909;53.590;10.054;2023-04-09T02:25:56;10.70;73.10
21495;DHT22;10909;53.590;10.054;2023-04-09T02:28:22;10.70;73.20
21495;DHT22;10909;53.590;10.054;2023-04-09T02:30:48;10.70;73.20
21495;DHT22;10909;53.590;10.054;2023-04-09T02:33:13;10.80;73.30
21495;DHT22;10909;53.590;10.054;2023-04-09T02:35:39;10.80;73.40
21495;DHT22;10909;53.590;10.054;2023-04-09T02:38:05;10.80;73.40
21495;DHT22;10909;53.590;10.054;2023-04-09T02:40:32;10.80;73.20
21495;DHT22;10909;53.590;10.054;2023-04-09T02:42:58;10.80;73.00
21495;DHT22;10909;53.590;10.054;2023-04-09T02:45:23;10.80;73.00
21495;DHT22;10909;53.590;10.054;2023-04-09T02:47:49;10.80;73.00
21495;DHT22;10909;53.590;10.054;2023-04-09T02:50:15;10.70;73.20
21495;DHT22;10909;53.590;10.054;2023-04-09T02:52:41;10.70;73.10
21495;DHT22;10909;53.590;10.054;2023-04-09T02:55:07;10.70;73.20
21495;DHT22;10909;53.590;10.054;2023-04-09T02:57:32;10.70;73.40
21495;DHT22;10909;53.590;10.054;2023-04-09T02:59:58;10.70;73.30
21495;DHT22;10909;53.590;10.054;2023-04-09T03:02:24;10.70;73.50
21495;DHT22;10909;53.590;10.054;2023-04-09T03:04:50;10.60;73.30
21495;DHT22;10909;53.590;10.054;2023-04-09T03:07:17;10.70;73.60
21495;DHT22;10909;53.590;10.054;2023-04-09T03:09:43;10.60;73.30
21495;DHT22;10909;53.590;10.054;2023-04-09T03:12:09;10.70;73.50
21495;DHT22;10909;53.590;10.054;2023-04-09T03:14:35;10.70;73.60
21495;DHT22;10909;53.590;10.054;2023-04-09T03:17:07;10.70;73.50
21495;DHT22;10909;53.590;10.054;2023-04-09T03:19:32;10.70;73.60
21495;DHT22;10909;53.590;10.054;2023-04-09T03:21:58;10.70;73.60
21495;DHT22;10909;53.590;10.054;2023-04-09T03:24:24;10.70;73.60
21495;DHT22;10909;53.590;10.054;2023-04-09T03:26:49;10.70;73.50
21495;DHT22;10909;53.590;10.054;2023-04-09T03:29:15;10.70;73.60
21495;DHT22;10909;53.590;10.054;2023-04-09T03:31:41;10.70;73.70
21495;DHT22;10909;53.590;10.054;2023-04-09T03:34:07;10.70;73.70
21495;DHT22;10909;53.590;10.054;2023-04-09T03:36:32;10.70;73.70
21495;DHT22;10909;53.590;10.054;2023-04-09T03:38:58;10.70;73.70
21495;DHT22;10909;53.590;10.054;2023-04-09T03:41:25;10.70;73.70
21495;DHT22;10909;53.590;10.054;2023-04-09T03:43:52;10.70;74.30
21495;DHT22;10909;53.590;10.054;2023-04-09T03:46:18;10.70;73.70
21495;DHT22;10909;53.590;10.054;2023-04-09T03:48:44;10.70;73.80
21495;DHT22;10909;53.590;10.054;2023-04-09T03:51:16;10.70;73.80
21495;DHT22;10909;53.590;10.054;2023-04-09T03:53:42;10.70;73.80
21495;DHT22;10909;53.590;10.054;2023-04-09T03:56:08;10.70;73.70
21495;DHT22;10909;53.590;10.054;2023-04-09T03:58:35;10.70;73.70
21495;DHT22;10909;53.590;10.054;2023-04-09T04:01:01;10.70;73.70
21495;DHT22;10909;53.590;10.054;2023-04-09T04:03:27;10.70;73.70
21495;DHT22;10909;53.590;10.054;2023-04-09T04:05:53;10.70;73.70
21495;DHT22;10909;53.590;10.054;2023-04-09T04:08:24;10.70;73.60
21495;DHT22;10909;53.590;10.054;2023-04-09T04:10:50;10.70;73.70
21495;DHT22;10909;53.590;10.054;2023-04-09T04:13:15;10.70;73.80
21495;DHT22;10909;53.590;10.054;2023-04-09T04:15:41;10.70;73.80
21495;DHT22;10909;53.590;10.054;2023-04-09T04:18:08;10.70;73.90
21495;DHT22;10909;53.590;10.054;2023-04-09T04:20:35;10.70;73.80
21495;DHT22;10909;53.590;10.054;2023-04-09T04:23:02;10.70;73.90
21495;DHT22;10909;53.590;10.054;2023-04-09T04:25:28;10.60;73.70
21495;DHT22;10909;53.590;10.054;2023-04-09T04:27:54;10.60;73.80
21495;DHT22;10909;53.590;10.054;2023-04-09T04:30:20;10.60;73.70
21495;DHT22;10909;53.590;10.054;2023-04-09T04:32:47;10.60;73.70
21495;DHT22;10909;53.590;10.054;2023-04-09T04:35:13;10.60;73.80
21495;DHT22;10909;53.590;10.054;2023-04-09T04:37:40;10.60;73.80
21495;DHT22;10909;53.590;10.054;2023-04-09T04:40:07;10.60;73.90
21495;DHT22;10909;53.590;10.054;2023-04-09T04:42:34;10.60;73.80
21495;DHT22;10909;53.590;10.054;2023-04-09T04:45:00;10.60;73.80
21495;DHT22;10909;53.590;10.054;2023-04-09T04:47:27;10.50;73.80
21495;DHT22;10909;53.590;10.054;2023-04-09T04:49:53;10.50;73.80
21495;DHT22;10909;53.590;10.054;2023-04-09T04:52:19;10.50;74.00
21495;DHT22;10909;53.590;10.054;2023-04-09T04:54:44;10.50;73.90
21495;DHT22;10909;53.590;10.054;2023-04-09T04:57:10;10.50;73.90
21495;DHT22;10909;53.590;10.054;2023-04-09T04:59:37;10.50;74.00
21495;DHT22;10909;53.590;10.054;2023-04-09T05:02:06;10.50;74.10
21495;DHT22;10909;53.590;10.054;2023-04-09T05:04:33;10.50;74.20
21495;DHT22;10909;53.590;10.054;2023-04-09T05:06:59;10.50;74.20
21495;DHT22;10909;53.590;10.054;2023-04-09T05:09:25;10.50;74.20
21495;DHT22;10909;53.590;10.054;2023-04-09T05:11:51;10.50;74.20
21495;DHT22;10909;53.590;10.054;2023-04-09T05:14:17;10.50;74.20
21495;DHT22;10909;53.590;10.054;2023-04-09T05:16:45;10.60;74.30
21495;DHT22;10909;53.590;10.054;2023-04-09T05:19:11;10.60;74.30
21495;DHT22;10909;53.590;10.054;2023-04-09T05:21:37;10.60;74.20
21495;DHT22;10909;53.590;10.054;2023-04-09T05:24:04;10.60;74.20
21495;DHT22;10909;53.590;10.054;2023-04-09T05:26:30;10.60;74.30
21495;DHT22;10909;53.590;10.054;2023-04-09T05:28:56;10.60;74.20
21495;DHT22;10909;53.590;10.054;2023-04-09T05:31:22;10.70;74.30
21495;DHT22;10909;53.590;10.054;2023-04-09T05:33:47;10.70;74.30
21495;DHT22;10909;53.590;10.054;2023-04-09T05:36:15;10.70;74.30
21495;DHT22;10909;53.590;10.054;2023-04-09T05:41:08;10.70;73.50
21495;DHT22;10909;53.590;10.054;2023-04-09T05:43:34;10.80;74.30
21495;DHT22;10909;53.590;10.054;2023-04-09T05:46:02;10.70;74.10
21495;DHT22;10909;53.590;10.054;2023-04-09T05:48:27;10.70;74.10
21495;DHT22;10909;53.590;10.054;2023-04-09T05:50:54;10.80;74.10
21495;DHT22;10909;53.590;10.054;2023-04-09T05:53:20;10.70;74.10
21495;DHT22;10909;53.590;10.054;2023-04-09T05:58:17;10.70;73.20
21495;DHT22;10909;53.590;10.054;2023-04-09T06:00:46;10.70;73.90
21495;DHT22;10909;53.590;10.054;2023-04-09T06:03:11;10.70;74.00
21495;DHT22;10909;53.590;10.054;2023-04-09T06:05:37;10.70;73.90
21495;DHT22;10909;53.590;10.054;2023-04-09T06:08:03;10.70;74.10
21495;DHT22;10909;53.590;10.054;2023-04-09T06:10:31;10.60;74.10
21495;DHT22;10909;53.590;10.054;2023-04-09T06:12:57;10.70;74.30
21495;DHT22;10909;53.590;10.054;2023-04-09T06:15:22;10.60;74.30
21495;DHT22;10909;53.590;10.054;2023-04-09T06:17:48;10.70;74.50
21495;DHT22;10909;53.590;10.054;2023-04-09T06:20:14;10.70;94.10
21495;DHT22;10909;53.590;10.054;2023-04-09T06:22:39;10.70;74.50
21495;DHT22;10909;53.590;10.054;2023-04-09T06:25:05;10.70;74.40
21495;DHT22;10909;53.590;10.054;2023-04-09T06:27:31;10.90;74.50
21495;DHT22;10909;53.590;10.054;2023-04-09T06:29:57;10.70;74.40
21495;DHT22;10909;53.590;10.054;2023-04-09T06:32:23;10.70;74.40
21495;DHT22;10909;53.590;10.054;2023-04-09T06:34:48;10.80;74.50
21495;DHT22;10909;53.590;10.054;2023-04-09T06:37:15;10.80;74.40
21495;DHT22;10909;53.590;10.054;2023-04-09T06:39:40;10.80;74.40
21495;DHT22;10909;53.590;10.054;2023-04-09T06:42:06;10.80;74.40
21495;DHT22;10909;53.590;10.054;2023-04-09T06:44:34;10.90;74.50
21495;DHT22;10909;53.590;10.054;2023-04-09T06:47:02;10.80;74.40
21495;DHT22;10909;53.590;10.054;2023-04-09T06:49:28;10.90;74.40
21495;DHT22;10909;53.590;10.054;2023-04-09T06:51:53;10.90;74.50
21495;DHT22;10909;53.590;10.054;2023-04-09T06:54:19;10.90;74.40
21495;DHT22;10909;53.590;10.054;2023-04-09T06:56:45;10.90;74.40
21495;DHT22;10909;53.590;10.054;2023-04-09T07:01:37;10.90;73.50
21495;DHT22;10909;53.590;10.054;2023-04-09T07:06:30;11.00;74.50
21495;DHT22;10909;53.590;10.054;2023-04-09T07:11:21;11.00;73.60
21495;DHT22;10909;53.590;10.054;2023-04-09T07:13:47;11.00;74.40
21495;DHT22;10909;53.590;10.054;2023-04-09T07:18:39;11.10;74.40
21495;DHT22;10909;53.590;10.054;2023-04-09T07:23:35;11.10;73.50
21495;DHT22;10909;53.590;10.054;2023-04-09T07:26:03;11.10;74.50
21495;DHT22;10909;53.590;10.054;2023-04-09T07:28:29;11.10;74.50
21495;DHT22;10909;53.590;10.054;2023-04-09T07:30:55;11.10;74.50
21495;DHT22;10909;53.590;10.054;2023-04-09T07:33:21;11.10;74.70
21495;DHT22;10909;53.590;10.054;2023-04-09T07:35:46;11.10;74.70
21495;DHT22;10909;53.590;10.054;2023-04-09T07:40:38;11.20;74.40
21495;DHT22;10909;53.590;10.054;2023-04-09T07:43:04;11.20;74.40
21495;DHT22;10909;53.590;10.054;2023-04-09T08:00:10;11.40;74.20
21495;DHT22;10909;53.590;10.054;2023-04-09T08:02:37;11.40;74.10
21495;DHT22;10909;53.590;10.054;2023-04-09T08:05:03;11.40;74.20
21495;DHT22;10909;53.590;10.054;2023-04-09T08:07:29;11.40;74.40
21495;DHT22;10909;53.590;10.054;2023-04-09T08:09:54;11.40;74.60
21495;DHT22;10909;53.590;10.054;2023-04-09T08:12:21;11.50;74.60
21495;DHT22;10909;53.590;10.054;2023-04-09T08:24:32;11.70;73.70
21495;DHT22;10909;53.590;10.054;2023-04-09T08:26:57;11.70;73.90
21495;DHT22;10909;53.590;10.054;2023-04-09T08:29:23;11.70;74.10
21495;DHT22;10909;53.590;10.054;2023-04-09T08:34:15;11.80;73.70
21495;DHT22;10909;53.590;10.054;2023-04-09T08:36:44;11.80;74.10
21495;DHT22;10909;53.590;10.054;2023-04-09T08:39:10;11.90;74.10
21495;DHT22;10909;53.590;10.054;2023-04-09T08:41:40;11.90;73.40
21495;DHT22;10909;53.590;10.054;2023-04-09T08:44:08;12.00;74.30
21495;DHT22;10909;53.590;10.054;2023-04-09T08:46:35;12.00;74.10
21495;DHT22;10909;53.590;10.054;2023-04-09T08:49:02;12.20;73.50
21495;DHT22;10909;53.590;10.054;2023-04-09T08:51:28;12.20;74.30
21495;DHT22;10909;53.590;10.054;2023-04-09T08:53:58;12.30;74.10
21495;DHT22;10909;53.590;10.054;2023-04-09T08:56:24;12.30;73.90
21495;DHT22;10909;53.590;10.054;2023-04-09T08:58:51;12.40;73.60
21495;DHT22;10909;53.590;10.054;2023-04-09T09:01:25;12.60;72.40
21495;DHT22;10909;53.590;10.054;2023-04-09T09:06:40;12.70;71.80
21495;DHT22;10909;53.590;10.054;2023-04-09T09:09:13;12.70;72.60
21495;DHT22;10909;53.590;10.054;2023-04-09T09:11:45;12.70;72.40
21495;DHT22;10909;53.590;10.054;2023-04-09T09:14:16;12.70;72.20
21495;DHT22;10909;53.590;10.054;2023-04-09T09:17:02;12.70;72.00
21495;DHT22;10909;53.590;10.054;2023-04-09T09:19:30;12.70;71.90
21495;DHT22;10909;53.590;10.054;2023-04-09T09:22:03;12.80;71.60
21495;DHT22;10909;53.590;10.054;2023-04-09T09:24:30;12.80;72.30
21495;DHT22;10909;53.590;10.054;2023-04-09T09:29:23;12.80;71.20
21495;DHT22;10909;53.590;10.054;2023-04-09T09:31:51;12.90;72.00
21495;DHT22;10909;53.590;10.054;2023-04-09T09:34:17;12.90;71.90
21495;DHT22;10909;53.590;10.054;2023-04-09T09:36:44;12.90;71.80
21495;DHT22;10909;53.590;10.054;2023-04-09T09:39:11;13.00;71.80
21495;DHT22;10909;53.590;10.054;2023-04-09T09:41:41;13.00;71.70
21495;DHT22;10909;53.590;10.054;2023-04-09T09:44:08;13.10;71.40
21495;DHT22;10909;53.590;10.054;2023-04-09T09:46:35;13.10;71.20
21495;DHT22;10909;53.590;10.054;2023-04-09T09:49:02;13.20;71.00
21495;DHT22;10909;53.590;10.054;2023-04-09T09:51:28;13.20;70.70
21495;DHT22;10909;53.590;10.054;2023-04-09T09:53:56;13.20;70.50
21495;DHT22;10909;53.590;10.054;2023-04-09T09:56:24;13.20;70.40
21495;DHT22;10909;53.590;10.054;2023-04-09T09:59:12;13.20;70.40
21495;DHT22;10909;53.590;10.054;2023-04-09T10:01:40;13.20;70.50
21495;DHT22;10909;53.590;10.054;2023-04-09T10:04:08;13.50;78.20
21495;DHT22;10909;53.590;10.054;2023-04-09T10:06:41;13.20;70.60
21495;DHT22;10909;53.590;10.054;2023-04-09T10:09:07;13.20;70.40
21495;DHT22;10909;53.590;10.054;2023-04-09T10:11:35;13.20;70.40
21495;DHT22;10909;53.590;10.054;2023-04-09T10:14:03;13.30;70.30
21495;DHT22;10909;53.590;10.054;2023-04-09T10:16:30;13.30;70.20
21495;DHT22;10909;53.590;10.054;2023-04-09T10:18:57;13.40;70.30
21495;DHT22;10909;53.590;10.054;2023-04-09T10:23:55;13.40;70.20
21495;DHT22;10909;53.590;10.054;2023-04-09T10:26:24;13.40;70.10
21495;DHT22;10909;53.590;10.054;2023-04-09T10:29:09;13.50;69.80
21495;DHT22;10909;53.590;10.054;2023-04-09T10:34:17;13.60;69.80
21495;DHT22;10909;53.590;10.054;2023-04-09T10:36:45;13.60;69.50
21495;DHT22;10909;53.590;10.054;2023-04-09T10:41:40;13.70;68.70
21495;DHT22;10909;53.590;10.054;2023-04-09T10:44:22;13.70;69.50
21495;DHT22;10909;53.590;10.054;2023-04-09T10:49:35;13.80;68.60
21495;DHT22;10909;53.590;10.054;2023-04-09T10:52:11;13.80;69.30
21495;DHT22;10909;53.590;10.054;2023-04-09T10:54:44;13.90;69.20
21495;DHT22;10909;53.590;10.054;2023-04-09T10:57:18;13.90;68.00
21495;DHT22;10909;53.590;10.054;2023-04-09T10:59:54;13.90;68.70
21495;DHT22;10909;53.590;10.054;2023-04-09T11:24:42;14.30;67.30
21495;DHT22;10909;53.590;10.054;2023-04-09T11:27:08;14.40;67.00
21495;DHT22;10909;53.590;10.054;2023-04-09T11:32:02;14.40;66.60
21495;DHT22;10909;53.590;10.054;2023-04-09T11:39:23;14.70;69.80
21495;DHT22;10909;53.590;10.054;2023-04-09T11:41:49;14.80;66.80
21495;DHT22;10909;53.590;10.054;2023-04-09T11:44:15;15.00;66.50
21495;DHT22;10909;53.590;10.054;2023-04-09T11:49:08;15.20;66.00
21495;DHT22;10909;53.590;10.054;2023-04-09T11:51:34;15.00;67.30
21495;DHT22;10909;53.590;10.054;2023-04-09T11:56:34;15.50;85.20
21495;DHT22;10909;53.590;10.054;2023-04-09T11:59:02;15.10;65.90
21495;DHT22;10909;53.590;10.054;2023-04-09T12:01:32;15.50;65.00
21495;DHT22;10909;53.590;10.054;2023-04-09T12:08:58;15.80;63.50
21495;DHT22;10909;53.590;10.054;2023-04-09T12:11:28;15.90;64.50
21495;DHT22;10909;53.590;10.054;2023-04-09T12:13:59;15.90;64.50
21495;DHT22;10909;53.590;10.054;2023-04-09T12:19:00;16.00;63.50
21495;DHT22;10909;53.590;10.054;2023-04-09T12:21:47;15.80;66.30
21495;DHT22;10909;53.590;10.054;2023-04-09T12:24:14;16.40;70.70
21495;DHT22;10909;53.590;10.054;2023-04-09T12:29:06;16.00;88.30
21495;DHT22;10909;53.590;10.054;2023-04-09T12:31:31;16.50;64.10
21495;DHT22;10909;53.590;10.054;2023-04-09T12:36:23;16.60;62.50
21495;DHT22;10909;53.590;10.054;2023-04-09T12:41:15;16.90;60.20
21495;DHT22;10909;53.590;10.054;2023-04-09T12:43:41;17.10;62.90
21495;DHT22;10909;53.590;10.054;2023-04-09T12:51:02;18.00;59.60
21495;DHT22;10909;53.590;10.054;2023-04-09T12:53:28;18.10;64.70
21495;DHT22;10909;53.590;10.054;2023-04-09T12:55:54;18.80;63.00
21495;DHT22;10909;53.590;10.054;2023-04-09T12:58:20;19.40;61.10
21495;DHT22;10909;53.590;10.054;2023-04-09T13:00:46;19.40;64.20
21495;DHT22;10909;53.590;10.054;2023-04-09T13:03:11;19.80;63.30
21495;DHT22;10909;53.590;10.054;2023-04-09T13:05:37;20.20;63.30
21495;DHT22;10909;53.590;10.054;2023-04-09T13:08:03;20.60;60.80
21495;DHT22;10909;53.590;10.054;2023-04-09T13:10:32;21.40;60.40
21495;DHT22;10909;53.590;10.054;2023-04-09T13:12:58;21.70;59.30
21495;DHT22;10909;53.590;10.054;2023-04-09T13:15:23;21.80;60.00
21495;DHT22;10909;53.590;10.054;2023-04-09T13:17:51;22.40;53.70
21495;DHT22;10909;53.590;10.054;2023-04-09T13:20:17;22.60;54.70
21495;DHT22;10909;53.590;10.054;2023-04-09T13:25:16;22.80;52.90
21495;DHT22;10909;53.590;10.054;2023-04-09T13:32:34;22.80;50.00
21495;DHT22;10909;53.590;10.054;2023-04-09T13:35:02;22.80;50.90
21495;DHT22;10909;53.590;10.054;2023-04-09T13:37:28;22.60;50.00
21495;DHT22;10909;53.590;10.054;2023-04-09T13:39:54;22.50;51.00
21495;DHT22;10909;53.590;10.054;2023-04-09T13:42:20;22.40;51.30
21495;DHT22;10909;53.590;10.054;2023-04-09T13:44:46;22.50;51.90
21495;DHT22;10909;53.590;10.054;2023-04-09T13:47:13;22.70;52.60
21495;DHT22;10909;53.590;10.054;2023-04-09T13:49:39;23.00;52.20
21495;DHT22;10909;53.590;10.054;2023-04-09T13:52:05;23.40;51.30
21495;DHT22;10909;53.590;10.054;2023-04-09T13:54:32;23.70;50.70
21495;DHT22;10909;53.590;10.054;2023-04-09T13:56:58;24.00;50.70
21495;DHT22;10909;53.590;10.054;2023-04-09T13:59:24;24.30;50.80
21495;DHT22;10909;53.590;10.054;2023-04-09T14:01:49;24.60;50.10
21495;DHT22;10909;53.590;10.054;2023-04-09T14:04:15;24.90;49.90
21495;DHT22;10909;53.590;10.054;2023-04-09T14:06:41;25.30;49.50
21495;DHT22;10909;53.590;10.054;2023-04-09T14:09:08;26.00;45.30
21495;DHT22;10909;53.590;10.054;2023-04-09T14:11:34;26.00;48.40
21495;DHT22;10909;53.590;10.054;2023-04-09T14:18:55;26.90;42.80
21495;DHT22;10909;53.590;10.054;2023-04-09T14:21:21;26.90;44.90
21495;DHT22;10909;53.590;10.054;2023-04-09T14:23:48;26.70;42.40
21495;DHT22;10909;53.590;10.054;2023-04-09T14:26:14;26.40;41.60
21495;DHT22;10909;53.590;10.054;2023-04-09T14:28:41;26.10;41.60
21495;DHT22;10909;53.590;10.054;2023-04-09T14:31:07;25.70;41.60
21495;DHT22;10909;53.590;10.054;2023-04-09T14:33:33;25.30;41.80
21495;DHT22;10909;53.590;10.054;2023-04-09T14:38:25;24.50;41.40
21495;DHT22;10909;53.590;10.054;2023-04-09T14:40:51;24.20;42.30
21495;DHT22;10909;53.590;10.054;2023-04-09T14:43:17;23.90;42.60
21495;DHT22;10909;53.590;10.054;2023-04-09T14:45:43;23.60;43.00
21495;DHT22;10909;53.590;10.054;2023-04-09T14:48:08;23.40;43.60
21495;DHT22;10909;53.590;10.054;2023-04-09T14:50:34;23.50;43.50
21495;DHT22;10909;53.590;10.054;2023-04-09T14:53:04;23.40;43.00
21495;DHT22;10909;53.590;10.054;2023-04-09T14:57:58;23.00;42.10
21495;DHT22;10909;53.590;10.054;2023-04-09T15:00:24;22.90;42.70
21495;DHT22;10909;53.590;10.054;2023-04-09T15:02:49;22.70;42.90
21495;DHT22;10909;53.590;10.054;2023-04-09T15:05:15;22.40;43.40
21495;DHT22;10909;53.590;10.054;2023-04-09T15:07:41;22.00;44.00
21495;DHT22;10909;53.590;10.054;2023-04-09T15:15:05;21.80;64.70
21495;DHT22;10909;53.590;10.054;2023-04-09T15:19:57;21.30;44.50
21495;DHT22;10909;53.590;10.054;2023-04-09T15:27:16;20.90;45.10
21495;DHT22;10909;53.590;10.054;2023-04-09T15:34:34;20.80;45.40
21495;DHT22;10909;53.590;10.054;2023-04-09T15:36:59;20.80;46.60
21495;DHT22;10909;53.590;10.054;2023-04-09T15:39:25;20.90;46.80
21495;DHT22;10909;53.590;10.054;2023-04-09T15:51:39;21.80;45.20
21495;DHT22;10909;53.590;10.054;2023-04-09T15:54:05;21.80;46.40
21495;DHT22;10909;53.590;10.054;2023-04-09T15:56:30;21.80;45.60
21495;DHT22;10909;53.590;10.054;2023-04-09T15:58:56;21.70;45.10
21495;DHT22;10909;53.590;10.054;2023-04-09T16:01:23;21.50;45.10
21495;DHT22;10909;53.590;10.054;2023-04-09T16:03:49;21.30;45.10
21495;DHT22;10909;53.590;10.054;2023-04-09T16:06:17;21.10;45.40
21495;DHT22;10909;53.590;10.054;2023-04-09T16:08:43;20.80;45.30
21495;DHT22;10909;53.590;10.054;2023-04-09T16:11:09;20.60;45.40
21495;DHT22;10909;53.590;10.054;2023-04-09T16:13:35;20.50;45.30
21495;DHT22;10909;53.590;10.054;2023-04-09T16:16:02;20.30;45.60
21495;DHT22;10909;53.590;10.054;2023-04-09T16:18:28;20.10;46.00
21495;DHT22;10909;53.590;10.054;2023-04-09T16:20:55;20.00;46.40
21495;DHT22;10909;53.590;10.054;2023-04-09T16:23:22;19.90;46.80
21495;DHT22;10909;53.590;10.054;2023-04-09T16:25:48;19.70;46.90
21495;DHT22;10909;53.590;10.054;2023-04-09T16:28:15;19.60;47.30
21495;DHT22;10909;53.590;10.054;2023-04-09T16:30:41;19.40;47.60
21495;DHT22;10909;53.590;10.054;2023-04-09T16:33:07;19.20;47.50
21495;DHT22;10909;53.590;10.054;2023-04-09T16:35:36;19.00;47.90
21495;DHT22;10909;53.590;10.054;2023-04-09T16:38:03;19.00;48.40
21495;DHT22;10909;53.590;10.054;2023-04-09T17:02:29;17.60;53.20
21495;DHT22;10909;53.590;10.054;2023-04-09T17:04:55;17.40;51.00
21495;DHT22;10909;53.590;10.054;2023-04-09T17:09:48;17.30;51.00
21495;DHT22;10909;53.590;10.054;2023-04-09T17:12:14;17.30;51.80
21495;DHT22;10909;53.590;10.054;2023-04-09T17:14:40;17.30;51.90
21495;DHT22;10909;53.590;10.054;2023-04-09T17:17:09;17.20;51.90
21495;DHT22;10909;53.590;10.054;2023-04-09T17:19:36;17.10;52.30
21495;DHT22;10909;53.590;10.054;2023-04-09T17:22:02;17.10;52.30
21495;DHT22;10909;53.590;10.054;2023-04-09T17:24:28;17.00;52.40
21495;DHT22;10909;53.590;10.054;2023-04-09T17:26:55;16.90;52.60
21495;DHT22;10909;53.590;10.054;2023-04-09T17:29:21;16.90;52.90
21495;DHT22;10909;53.590;10.054;2023-04-09T17:31:50;16.80;53.00
21495;DHT22;10909;53.590;10.054;2023-04-09T17:34:17;16.70;53.30
21495;DHT22;10909;53.590;10.054;2023-04-09T17:36:44;16.60;53.30
21495;DHT22;10909;53.590;10.054;2023-04-09T17:39:15;16.50;53.50
21495;DHT22;10909;53.590;10.054;2023-04-09T17:41:40;16.40;53.50
21495;DHT22;10909;53.590;10.054;2023-04-09T17:46:35;16.00;53.20
21495;DHT22;10909;53.590;10.054;2023-04-09T17:51:28;16.00;54.70
21495;DHT22;10909;53.590;10.054;2023-04-09T17:53:54;16.00;54.30
21495;DHT22;10909;53.590;10.054;2023-04-09T17:56:20;16.00;54.40
21495;DHT22;10909;53.590;10.054;2023-04-09T17:58:47;15.90;54.50
21495;DHT22;10909;53.590;10.054;2023-04-09T18:01:13;15.80;54.80
21495;DHT22;10909;53.590;10.054;2023-04-09T18:03:39;15.80;54.80
21495;DHT22;10909;53.590;10.054;2023-04-09T18:06:06;15.70;54.80
21495;DHT22;10909;53.590;10.054;2023-04-09T18:08:32;15.70;55.00
21495;DHT22;10909;53.590;10.054;2023-04-09T18:10:58;15.60;55.30
21495;DHT22;10909;53.590;10.054;2023-04-09T18:13:27;15.50;55.20
21495;DHT22;10909;53.590;10.054;2023-04-09T18:15:53;15.40;55.40
21495;DHT22;10909;53.590;10.054;2023-04-09T18:18:18;15.40;55.70
21495;DHT22;10909;53.590;10.054;2023-04-09T18:20:44;15.30;55.70
21495;DHT22;10909;53.590;10.054;2023-04-09T18:23:11;15.20;55.90
21495;DHT22;10909;53.590;10.054;2023-04-09T18:25:36;15.20;56.00
21495;DHT22;10909;53.590;10.054;2023-04-09T18:28:03;15.10;56.20
21495;DHT22;10909;53.590;10.054;2023-04-09T18:30:29;15.00;56.60
21495;DHT22;10909;53.590;10.054;2023-04-09T18:32:55;15.00;56.70